createdAt,value
2022-10-10T00:03:37.136Z,12.06
2022-10-10T00:08:44.386Z,12.02
2022-10-10T00:13:50.519Z,12.01
2022-10-10T00:18:56.037Z,12.00
2022-10-10T00:24:01.645Z,11.98
2022-10-10T00:29:08.341Z,11.94
2022-10-10T00:34:13.791Z,11.96
2022-10-10T00:39:19.307Z,11.92
2022-10-10T00:44:25.008Z,11.89
2022-10-10T00:49:32.188Z,11.90
2022-10-10T00:54:39.213Z,11.84
2022-10-10T00:59:46.698Z,11.79
2022-10-10T01:04:52.145Z,11.75
2022-10-10T01:10:00.928Z,11.79
2022-10-10T01:15:15.290Z,11.76
2022-10-10T01:20:43.358Z,11.73
2022-10-10T01:25:54.677Z,11.67
2022-10-10T01:31:01.301Z,11.66
2022-10-10T01:36:09.795Z,11.61
2022-10-10T01:41:21.176Z,11.64
2022-10-10T01:46:27.192Z,11.63
2022-10-10T01:51:52.501Z,11.54
2022-10-10T01:57:16.244Z,11.54
2022-10-10T02:02:39.741Z,11.48
2022-10-10T02:07:51.532Z,11.46
2022-10-10T02:12:59.745Z,11.43
2022-10-10T02:18:08.364Z,11.40
2022-10-10T02:23:18.992Z,11.43
2022-10-10T02:28:36.470Z,11.39
2022-10-10T02:33:47.866Z,11.35
2022-10-10T02:38:55.586Z,11.32
2022-10-10T02:44:00.958Z,11.35
2022-10-10T02:49:11.782Z,11.35
2022-10-10T02:54:17.286Z,11.36
2022-10-10T02:59:22.889Z,11.36
2022-10-10T03:04:29.763Z,11.33
2022-10-10T03:09:35.365Z,11.32
2022-10-10T03:14:40.743Z,11.31
2022-10-10T03:19:46.258Z,11.32
2022-10-10T03:24:53.161Z,11.31
2022-10-10T03:29:58.749Z,11.32
2022-10-10T03:35:04.360Z,11.21
2022-10-10T03:40:10.363Z,11.21
2022-10-10T03:45:15.882Z,11.11
2022-10-10T03:50:21.335Z,11.14
2022-10-10T03:55:26.762Z,11.10
2022-10-10T04:00:32.297Z,11.05
2022-10-10T04:05:40.207Z,11.02
2022-10-10T04:10:51.469Z,11.03
2022-10-10T04:15:57.620Z,10.96
2022-10-10T04:21:07.126Z,10.97
2022-10-10T04:26:12.641Z,10.94
2022-10-10T04:31:18.081Z,10.88
2022-10-10T04:36:23.598Z,10.75
2022-10-10T04:41:28.978Z,10.72
2022-10-10T04:46:34.497Z,10.68
2022-10-10T04:51:40.072Z,10.61
2022-10-10T04:56:46.215Z,10.56
2022-10-10T05:01:53.316Z,10.48
2022-10-10T05:06:58.897Z,10.40
2022-10-10T05:12:06.670Z,10.31
2022-10-10T05:17:12.109Z,10.26
2022-10-10T05:22:17.478Z,10.20
2022-10-10T05:27:22.914Z,10.21
2022-10-10T05:32:28.442Z,10.18
2022-10-10T05:37:34.663Z,10.18
2022-10-10T05:42:40.177Z,10.26
2022-10-10T05:47:45.767Z,10.25
2022-10-10T05:52:51.535Z,10.21
2022-10-10T05:57:57.654Z,9.57
2022-10-10T06:03:03.466Z,10.19
2022-10-10T06:08:12.179Z,10.19
2022-10-10T06:13:23.833Z,10.25
2022-10-10T06:18:25.729Z,10.24
2022-10-10T06:23:31.610Z,10.21
2022-10-10T06:28:37.278Z,10.24
2022-10-10T06:33:48.192Z,10.36
2022-10-10T06:38:53.630Z,10.49
2022-10-10T06:43:59.082Z,10.53
2022-10-10T06:49:06.175Z,10.56
2022-10-10T06:54:12.244Z,10.66
2022-10-10T06:59:17.887Z,10.85
2022-10-10T07:04:23.415Z,10.91
2022-10-10T07:09:29.702Z,10.94
2022-10-10T07:14:35.212Z,11.09
2022-10-10T07:19:41.060Z,11.26
2022-10-10T07:24:47.081Z,11.36
2022-10-10T07:29:52.597Z,11.52
2022-10-10T07:34:59.116Z,11.67
2022-10-10T07:40:04.830Z,11.71
2022-10-10T07:45:12.340Z,12.82
2022-10-10T07:50:17.846Z,12.30
2022-10-10T07:55:23.357Z,12.33
2022-10-10T08:00:29.272Z,12.41
2022-10-10T08:05:34.848Z,12.52
2022-10-10T08:10:43.352Z,12.78
2022-10-10T08:15:51.859Z,12.90
2022-10-10T08:21:02.487Z,13.05
2022-10-10T08:26:10.780Z,13.25
2022-10-10T08:31:19.506Z,13.69
2022-10-10T08:36:27.642Z,13.81
2022-10-10T08:41:42.058Z,13.96
2022-10-10T08:46:59.895Z,14.05
2022-10-10T08:52:11.423Z,14.23
2022-10-10T08:57:47.214Z,14.39
2022-10-10T09:02:59.351Z,14.62
2022-10-10T09:08:26.992Z,14.93
2022-10-10T09:13:43.595Z,15.05
2022-10-10T09:19:19.465Z,15.21
2022-10-10T09:24:27.954Z,15.40
2022-10-10T09:29:42.303Z,15.52
2022-10-10T09:34:50.491Z,15.76
2022-10-10T09:40:01.741Z,15.85
2022-10-10T09:45:22.236Z,15.97
2022-10-10T09:50:28.501Z,16.08
2022-10-10T09:55:39.261Z,16.25
2022-10-10T10:00:44.838Z,16.31
2022-10-10T10:05:56.066Z,16.24
2022-10-10T10:11:03.094Z,16.43
2022-10-10T10:16:14.554Z,16.54
2022-10-10T10:21:23.730Z,16.75
2022-10-10T10:26:44.062Z,16.88
2022-10-10T10:32:16.769Z,17.03
2022-10-10T10:37:28.078Z,17.20
2022-10-10T10:42:48.290Z,17.15
2022-10-10T10:48:24.120Z,17.16
2022-10-10T10:53:32.552Z,17.12
2022-10-10T11:04:16.073Z,17.28
2022-10-10T11:09:48.379Z,17.35
2022-10-10T11:14:50.814Z,17.45
2022-10-10T11:19:59.311Z,17.64
2022-10-10T11:25:07.733Z,17.63
2022-10-10T11:30:24.590Z,17.70
2022-10-10T11:35:48.188Z,17.79
2022-10-10T11:40:59.610Z,17.95
2022-10-10T11:46:08.423Z,18.09
2022-10-10T11:51:27.279Z,18.51
2022-10-10T11:56:35.709Z,18.56
2022-10-10T12:01:44.291Z,18.49
2022-10-10T12:06:55.246Z,18.82
2022-10-10T12:12:23.403Z,19.03
2022-10-10T12:17:31.594Z,19.23
2022-10-10T12:22:37.113Z,19.23
2022-10-10T12:27:49.333Z,19.10
2022-10-10T12:32:55.355Z,19.19
2022-10-10T12:38:12.675Z,19.24
2022-10-10T12:43:27.304Z,19.18
2022-10-10T12:48:33.393Z,19.19
2022-10-10T12:53:39.179Z,19.15
2022-10-10T12:58:46.832Z,18.97
2022-10-10T13:03:55.069Z,18.92
2022-10-10T13:09:03.954Z,18.71
2022-10-10T13:14:10.271Z,18.65
2022-10-10T13:19:26.474Z,18.61
2022-10-10T13:24:33.469Z,18.63
2022-10-10T13:29:41.722Z,18.53
2022-10-10T13:34:50.217Z,18.61
2022-10-10T13:39:57.084Z,18.90
2022-10-10T13:45:05.715Z,19.24
2022-10-10T13:50:44.769Z,19.26
2022-10-10T13:55:51.369Z,19.33
2022-10-10T14:01:04.759Z,19.30
2022-10-10T14:06:10.562Z,19.19
2022-10-10T14:11:19.122Z,19.16
2022-10-10T14:16:26.424Z,19.19
2022-10-10T14:21:31.879Z,19.15
2022-10-10T14:26:38.411Z,19.24
2022-10-10T14:31:44.642Z,19.25
2022-10-10T14:36:51.715Z,19.13
2022-10-10T14:41:57.161Z,19.08
2022-10-10T14:47:02.549Z,18.97
2022-10-10T14:52:09.762Z,18.89
2022-10-10T14:57:15.566Z,18.82
2022-10-10T15:02:22.851Z,18.81
2022-10-10T15:07:28.646Z,18.63
2022-10-10T15:12:35.556Z,18.60
2022-10-10T15:17:41.695Z,18.45
2022-10-10T15:22:47.416Z,18.42
2022-10-10T15:27:52.955Z,18.23
2022-10-10T15:32:58.570Z,18.22
2022-10-10T15:38:04.125Z,18.19
2022-10-10T15:43:09.866Z,18.12
2022-10-10T15:48:15.403Z,18.10
2022-10-10T15:53:21.258Z,17.99
2022-10-10T15:58:26.972Z,17.81
2022-10-10T16:03:34.116Z,17.65
2022-10-10T16:08:40.047Z,17.46
2022-10-10T16:13:51.080Z,17.30
2022-10-10T16:18:56.637Z,17.11
2022-10-10T16:24:02.104Z,16.88
2022-10-10T16:29:09.341Z,16.83
2022-10-10T16:34:16.152Z,16.70
2022-10-10T16:39:21.680Z,16.61
2022-10-10T16:44:27.776Z,16.47
2022-10-10T16:49:33.168Z,16.37
2022-10-10T16:54:38.894Z,16.30
2022-10-10T16:59:44.557Z,16.24
2022-10-10T17:04:50.083Z,16.13
2022-10-10T17:09:55.636Z,16.01
2022-10-10T17:15:01.681Z,15.91
2022-10-10T17:20:08.609Z,15.83
2022-10-10T17:25:14.247Z,15.73
2022-10-10T17:30:20.024Z,15.66
2022-10-10T17:35:25.540Z,15.55
2022-10-10T17:40:31.205Z,15.50
2022-10-10T17:45:37.708Z,15.44
2022-10-10T17:50:43.164Z,15.40
2022-10-10T17:55:48.938Z,15.36
2022-10-10T18:00:56.312Z,15.27
2022-10-10T18:06:09.782Z,15.27
2022-10-10T18:11:18.419Z,15.27
2022-10-10T18:16:24.533Z,15.25
2022-10-10T18:21:30.172Z,15.20
2022-10-10T18:26:36.553Z,15.18
2022-10-10T18:31:43.423Z,15.17
2022-10-10T18:36:50.349Z,15.15
2022-10-10T18:41:55.873Z,15.14
2022-10-10T18:47:01.395Z,15.10
2022-10-10T18:52:08.846Z,15.07
2022-10-10T18:57:14.588Z,15.06
2022-10-10T19:02:20.213Z,15.08
2022-10-10T19:07:25.665Z,14.98
2022-10-10T19:12:31.207Z,14.90
2022-10-10T19:17:36.655Z,14.87
2022-10-10T19:22:42.247Z,14.86
2022-10-10T19:27:47.773Z,14.80
2022-10-10T19:32:53.211Z,14.76
2022-10-10T19:37:58.599Z,14.75
2022-10-10T19:43:04.108Z,14.76
2022-10-10T19:48:11.149Z,14.71
2022-10-10T19:53:19.644Z,14.70
2022-10-10T19:58:25.572Z,14.69
2022-10-10T20:03:30.957Z,14.69
2022-10-10T20:08:36.744Z,14.68
2022-10-10T20:13:42.389Z,14.66
2022-10-10T20:18:48.032Z,14.61
2022-10-10T20:23:54.557Z,14.51
2022-10-10T20:29:01.128Z,14.49
2022-10-10T20:34:07.525Z,14.44
2022-10-10T20:39:14.657Z,14.39
2022-10-10T20:44:20.247Z,14.29
2022-10-10T20:49:27.344Z,14.23
2022-10-10T20:54:32.797Z,14.17
2022-10-10T20:59:38.319Z,14.13
2022-10-10T21:04:43.804Z,14.15
2022-10-10T21:09:49.404Z,14.17
2022-10-10T21:14:56.619Z,14.19
2022-10-10T21:20:02.089Z,14.24
2022-10-10T21:25:08.395Z,14.30
2022-10-10T21:30:14.000Z,14.40
2022-10-10T21:35:19.464Z,14.43
2022-10-10T21:40:24.865Z,14.45
2022-10-10T21:45:30.590Z,14.43
2022-10-10T21:50:37.316Z,14.40
2022-10-10T21:55:42.696Z,14.36
2022-10-10T22:00:48.390Z,15.27
2022-10-10T22:05:53.892Z,14.60
2022-10-10T22:11:03.780Z,14.51
2022-10-10T22:16:10.110Z,14.51
2022-10-10T22:21:18.324Z,14.41
2022-10-10T22:26:23.796Z,14.35
2022-10-10T22:31:29.518Z,14.26
2022-10-10T22:36:36.746Z,14.14
2022-10-10T22:41:42.539Z,14.14
2022-10-10T22:46:48.706Z,14.12
2022-10-10T22:51:54.247Z,14.15
2022-10-10T22:56:59.782Z,14.16
2022-10-10T23:02:05.247Z,14.21
2022-10-10T23:07:10.754Z,14.30
2022-10-10T23:12:16.677Z,14.26
2022-10-10T23:17:22.484Z,14.26
2022-10-10T23:22:27.986Z,14.37
2022-10-10T23:27:33.448Z,14.41
2022-10-10T23:32:38.983Z,14.43
2022-10-10T23:37:44.375Z,14.43
2022-10-10T23:42:49.888Z,14.43
2022-10-10T23:47:55.338Z,14.37
2022-10-10T23:53:01.046Z,14.31
2022-10-10T23:58:06.959Z,14.23
